Hauptseite
METAR-TAF:

METAR-TAF

Flughäfen :

Flugplatz Hamburg-Finkenwerder

Finkenwerder, Deutschland

Breite: 53-32N, Länge: 009-50E, Höhe: 5 m

Beobachtung

Neuester Wetterbericht von vor 21 Minuten, um 10:50 UTC
Wind 4 kt aus West/Südwest, variierte zwischen Süd und Nordwest
Temperatur 18°C
Luftfeuchtigkeit 59%
Luftdruck 1022 hPa
Sichtweite 10 km oder mehr
Leicht bewölkt in der Höhe von 3100 ft

METAR: EDHI 281050Z 24004KT 190V320 9999 FEW031 18/10 Q1022

Zeit: 13:11 (11:11 UTC)

Prognose

Neuester Wetterbericht von vor 3 Stunden und 11 Minuten, um 08:00 UTC
Gültige Prognose vom 28 um 09 UTC bis 28 um 18 UTC
Wind 5 kt aus Südwest
Sichtweite 10 km oder mehr
keine Wolken unter 1500 m und keine Kumulonimbus oder Gewitterwolken
Übergehend zu
vom 28 um 16 UTC bis 28 um 18 UTC
Wind 2 kt aus Süd/Südost

TAF: EDHI 280800Z 2809/2818 23005KT CAVOK BECMG 2816/2818 15002KT

Wetterbeobachtungen und Prognosen von mehr als 4000 Flughäfen (METAR und TAF Bericht).

Die verfügbaren Stationen werden durch gelbe und rote Markierungen auf der Karte dargestellt.

Führen Sie die Maus auf sie, um den Namen der Station zu sehen.

Darauf klicken, um die Beobachtung von Wetterbeobachtungen und Prognosen zu sehen.

Um die Karte zu ändern : klicken Sie auf den grünen Tasten mit einem schwarzen Kreuz Zum Vergrößern, auf den grünen Button mit einem Gedankenstrich zu verkleinern, oder auf die grünen Pfeile für benachbarte Karten.


METAR-TAF: